Time;durP1;ratioP1;P1;durP2;ratioP2;P2;SDS_P1;SDS_P2;PMS_P1;PMS_P2;Temp;Humidity;BMP_temperature;BMP_pressure;BME280_temperature;BME280_humidity;BME280_pressure;Samples;Min_cycle;Max_cycle;Signal;HPM_P1;HPM_P2
2023/06/25 00:01:01;;;;;;;8.23;4.10;;;18.20;88.90;;;;;;4809009;29;90097;-84
2023/06/25 00:03:26;;;;;;;8.50;4.03;;;18.20;89.40;;;;;;4824182;29;87421;-84
2023/06/25 00:05:52;;;;;;;9.35;4.88;;;18.10;89.60;;;;;;4825199;29;90625;-84
2023/06/25 00:08:17;;;;;;;6.97;3.95;;;18.10;89.70;;;;;;4809064;29;90534;-84
2023/06/25 00:10:43;;;;;;;7.43;4.05;;;18.10;89.90;;;;;;4823741;29;91493;-84
2023/06/25 00:13:09;;;;;;;6.50;3.90;;;18.10;89.80;;;;;;4823927;29;88681;-84
2023/06/25 00:15:34;;;;;;;8.43;4.28;;;18.00;90.10;;;;;;4823413;29;90282;-84
2023/06/25 00:18:00;;;;;;;6.55;4.25;;;18.00;90.20;;;;;;4825173;29;89942;-85
2023/06/25 00:20:26;;;;;;;7.55;4.22;;;17.90;90.30;;;;;;4823254;29;91414;-84
2023/06/25 00:22:52;;;;;;;8.77;4.88;;;17.90;90.40;;;;;;4825772;29;87299;-84
2023/06/25 00:25:18;;;;;;;7.60;4.68;;;17.90;90.40;;;;;;4808144;29;89736;-84
2023/06/25 00:27:47;;;;;;;7.82;4.07;;;17.80;90.70;;;;;;4823657;29;90377;-84
2023/06/25 00:30:16;;;;;;;9.43;4.28;;;17.80;90.50;;;;;;4825685;29;88914;-84
2023/06/25 00:32:43;;;;;;;7.00;4.05;;;17.80;90.60;;;;;;4809278;29;87115;-84
2023/06/25 00:35:10;;;;;;;6.63;4.38;;;17.70;90.70;;;;;;4823626;29;89238;-84
2023/06/25 00:37:40;;;;;;;7.68;4.22;;;17.70;90.60;;;;;;4806931;29;92904;-84
2023/06/25 00:40:08;;;;;;;6.85;3.92;;;17.70;90.80;;;;;;4808514;29;90413;-83
2023/06/25 00:42:41;;;;;;;9.32;4.88;;;17.60;90.80;;;;;;4808429;29;87618;-84
2023/06/25 00:45:09;;;;;;;7.03;4.82;;;17.60;91.10;;;;;;4808320;29;89382;-84
2023/06/25 00:47:35;;;;;;;6.57;4.10;;;17.50;91.30;;;;;;4808277;29;91103;-84
2023/06/25 00:50:02;;;;;;;11.73;4.80;;;17.50;91.30;;;;;;4807880;29;90808;-84
2023/06/25 00:52:29;;;;;;;7.35;4.60;;;17.50;91.20;;;;;;4823009;29;88084;-84
2023/06/25 00:54:55;;;;;;;8.93;4.63;;;17.50;91.20;;;;;;4824139;29;90951;-84
2023/06/25 00:57:21;;;;;;;6.18;4.70;;;17.40;91.40;;;;;;4825552;29;88630;-82
2023/06/25 00:59:48;;;;;;;7.28;4.30;;;17.40;91.90;;;;;;4826892;29;88247;-84
2023/06/25 01:02:19;;;;;;;7.50;4.90;;;17.30;91.80;;;;;;4807720;29;88506;-84
2023/06/25 01:05:12;;;;;;;7.10;3.75;;;17.30;92.60;;;;;;4805772;29;90654;-84
2023/06/25 01:07:43;;;;;;;6.82;4.85;;;17.20;92.50;;;;;;4805253;29;90598;-83
2023/06/25 01:10:10;;;;;;;9.63;4.22;;;17.20;93.30;;;;;;4820908;29;91461;-85
2023/06/25 01:12:36;;;;;;;8.27;4.75;;;17.20;93.00;;;;;;4819745;29;87448;-84
2023/06/25 01:15:03;;;;;;;6.60;4.45;;;17.20;93.00;;;;;;4820142;29;90836;-84
2023/06/25 01:17:29;;;;;;;5.88;4.03;;;17.20;92.70;;;;;;4822373;29;91114;-85
2023/06/25 01:19:55;;;;;;;8.38;4.38;;;17.10;92.70;;;;;;4820724;29;91154;-84
2023/06/25 01:22:30;;;;;;;7.07;4.50;;;17.10;92.50;;;;;;4823259;29;87195;-85
2023/06/25 01:24:56;;;;;;;8.40;4.80;;;17.10;92.20;;;;;;4809163;29;90830;-83
2023/06/25 01:27:22;;;;;;;8.55;4.60;;;17.10;92.30;;;;;;4825240;29;92663;-85
2023/06/25 01:29:48;;;;;;;5.65;4.13;;;17.10;92.20;;;;;;4827460;29;91084;-85
2023/06/25 01:32:15;;;;;;;6.72;4.57;;;17.10;92.20;;;;;;4826211;29;87647;-84
2023/06/25 01:34:40;;;;;;;8.43;4.90;;;17.10;92.20;;;;;;4825491;29;90473;-85
2023/06/25 01:37:06;;;;;;;7.20;4.10;;;17.00;92.40;;;;;;4810331;29;90109;-84
2023/06/25 01:39:32;;;;;;;7.85;4.90;;;17.00;92.30;;;;;;4828053;29;88331;-85
2023/06/25 01:41:58;;;;;;;6.40;4.32;;;17.00;92.40;;;;;;4828925;29;87853;-84
2023/06/25 01:44:29;;;;;;;6.80;4.38;;;17.00;92.30;;;;;;4825551;29;90349;-84
2023/06/25 01:46:55;;;;;;;9.98;3.92;;;17.00;92.40;;;;;;4808992;29;91380;-84
2023/06/25 01:49:21;;;;;;;11.25;5.00;;;16.90;92.40;;;;;;4824754;29;90947;-84
2023/06/25 01:51:47;;;;;;;10.32;5.00;;;16.90;92.50;;;;;;4809146;29;88777;-84
2023/06/25 01:54:13;;;;;;;7.90;4.30;;;16.90;92.80;;;;;;4825015;29;89858;-84
2023/06/25 01:56:38;;;;;;;9.50;5.03;;;16.90;92.90;;;;;;4826397;29;91696;-85
2023/06/25 01:59:04;;;;;;;11.75;5.07;;;16.80;92.90;;;;;;4824571;29;89911;-84
2023/06/25 02:01:30;;;;;;;8.52;4.43;;;16.80;93.00;;;;;;4825524;29;87354;-84
2023/06/25 02:03:56;;;;;;;9.18;4.32;;;16.80;92.80;;;;;;4807819;29;90144;-84
2023/06/25 02:06:22;;;;;;;8.35;4.22;;;16.70;93.00;;;;;;4809458;29;91228;-81
2023/06/25 02:08:47;;;;;;;8.55;4.45;;;16.70;93.10;;;;;;4826030;29;91593;-85
2023/06/25 02:11:13;;;;;;;9.15;4.15;;;16.70;93.00;;;;;;4809906;29;87736;-83
2023/06/25 02:13:38;;;;;;;7.65;4.22;;;16.60;93.00;;;;;;4824560;29;90153;-85
2023/06/25 02:16:04;;;;;;;7.53;3.97;;;16.60;93.00;;;;;;4824309;29;92051;-85
2023/06/25 02:18:31;;;;;;;11.48;4.00;;;16.60;93.00;;;;;;4824387;29;91924;-85
2023/06/25 02:20:57;;;;;;;9.02;4.70;;;16.60;92.90;;;;;;4825561;29;88040;-84
2023/06/25 02:23:22;;;;;;;7.65;4.55;;;16.60;92.90;;;;;;4809525;29;89656;-84
2023/06/25 02:25:50;;;;;;;8.52;4.70;;;16.50;93.10;;;;;;4824559;29;91738;-85
2023/06/25 02:28:16;;;;;;;7.05;3.83;;;16.50;93.20;;;;;;4809751;29;91579;-84
2023/06/25 02:30:42;;;;;;;7.28;4.05;;;16.50;93.10;;;;;;4825037;29;89484;-85
2023/06/25 02:33:07;;;;;;;8.40;3.75;;;16.50;93.10;;;;;;4826999;29;87462;-85
2023/06/25 02:35:33;;;;;;;8.15;4.47;;;16.50;93.20;;;;;;4824649;29;91279;-85
2023/06/25 02:37:58;;;;;;;8.13;4.40;;;16.50;93.20;;;;;;4824523;29;91254;-85
2023/06/25 02:40:27;;;;;;;6.90;4.25;;;16.40;93.50;;;;;;4824032;29;88801;-85
2023/06/25 02:42:53;;;;;;;7.15;4.03;;;16.40;93.50;;;;;;4824311;29;89126;-85
2023/06/25 02:45:18;;;;;;;8.82;4.47;;;16.40;93.80;;;;;;4808686;29;90607;-85
2023/06/25 02:47:44;;;;;;;10.85;4.55;;;16.40;93.80;;;;;;4825068;29;89900;-85
2023/06/25 02:50:09;;;;;;;8.45;5.13;;;16.40;94.40;;;;;;4826194;29;87637;-84
2023/06/25 02:52:35;;;;;;;6.68;4.38;;;16.40;94.20;;;;;;4824591;29;90055;-85
2023/06/25 02:55:01;;;;;;;7.05;4.00;;;16.40;93.90;;;;;;4824056;29;90274;-85
2023/06/25 02:57:29;;;;;;;5.80;3.53;;;16.30;93.70;;;;;;4824560;29;91327;-84
2023/06/25 02:59:58;;;;;;;9.27;4.40;;;16.40;93.70;;;;;;4823194;29;87769;-85
2023/06/25 03:02:24;;;;;;;8.57;4.30;;;16.40;93.80;;;;;;4823478;29;89255;-85
2023/06/25 03:04:50;;;;;;;7.97;3.58;;;16.30;93.90;;;;;;4808913;29;91782;-84
2023/06/25 03:07:16;;;;;;;7.88;4.03;;;16.30;93.60;;;;;;4807862;29;90967;-84
2023/06/25 03:09:42;;;;;;;6.88;3.95;;;16.30;93.60;;;;;;4823622;29;87678;-85
2023/06/25 03:12:08;;;;;;;8.48;4.78;;;16.30;93.70;;;;;;4808377;29;90211;-85
2023/06/25 03:14:35;;;;;;;8.70;4.25;;;16.20;93.80;;;;;;4823989;29;91805;-85
2023/06/25 03:17:01;;;;;;;6.25;4.55;;;16.20;93.90;;;;;;4809068;29;91053;-85
2023/06/25 03:19:27;;;;;;;8.68;4.75;;;16.20;93.70;;;;;;4808886;29;87477;-83
2023/06/25 03:21:52;;;;;;;5.28;3.58;;;16.20;94.00;;;;;;4823537;29;90208;-86
2023/06/25 03:24:18;;;;;;;7.45;4.20;;;16.20;93.80;;;;;;4823303;29;90250;-86
2023/06/25 03:26:44;;;;;;;8.00;4.38;;;16.10;93.70;;;;;;4824245;29;89797;-88
2023/06/25 03:29:09;;;;;;;8.43;4.47;;;16.10;93.80;;;;;;4824097;29;88705;-88
2023/06/25 03:31:35;;;;;;;5.95;4.03;;;16.10;93.70;;;;;;4824366;29;89908;-88
2023/06/25 03:34:00;;;;;;;7.68;4.30;;;16.10;93.70;;;;;;4824644;29;91306;-86
2023/06/25 03:36:26;;;;;;;8.20;4.60;;;16.10;93.90;;;;;;4808303;29;90015;-86
2023/06/25 03:38:51;;;;;;;7.75;4.75;;;16.00;94.20;;;;;;4809720;29;87481;-88
2023/06/25 03:41:17;;;;;;;10.68;4.78;;;16.00;94.10;;;;;;4825354;29;90003;-86
2023/06/25 03:43:43;;;;;;;10.40;4.05;;;16.00;94.30;;;;;;4823980;29;90494;-88
2023/06/25 03:46:08;;;;;;;9.80;4.05;;;16.00;93.90;;;;;;4807675;29;91322;-87
2023/06/25 03:48:34;;;;;;;6.82;4.53;;;15.90;94.00;;;;;;4824529;29;87532;-88
2023/06/25 03:50:59;;;;;;;8.52;4.45;;;15.90;94.10;;;;;;4823953;29;89153;-87
2023/06/25 03:53:26;;;;;;;7.43;4.57;;;15.90;94.10;;;;;;4822945;29;92025;-87
2023/06/25 03:55:52;;;;;;;8.35;4.53;;;15.90;94.10;;;;;;4824159;29;91259;-88
2023/06/25 03:58:18;;;;;;;8.68;4.85;;;15.90;94.40;;;;;;4823582;29;87754;-87
2023/06/25 04:00:44;;;;;;;7.63;4.10;;;15.90;94.80;;;;;;4824175;29;90268;-86
2023/06/25 04:03:10;;;;;;;9.57;4.20;;;16.00;94.60;;;;;;4824869;29;92111;-88
2023/06/25 04:05:36;;;;;;;6.90;4.50;;;15.90;94.70;;;;;;4807759;29;90054;-86
2023/06/25 04:08:01;;;;;;;6.72;4.05;;;16.00;94.70;;;;;;4824912;29;87717;-87
2023/06/25 04:10:27;;;;;;;6.45;4.50;;;15.90;94.70;;;;;;4824144;29;90063;-87
2023/06/25 04:12:53;;;;;;;8.27;4.63;;;15.90;95.10;;;;;;4823153;29;91501;-86
2023/06/25 04:15:19;;;;;;;9.10;4.40;;;16.00;95.00;;;;;;4808024;29;91542;-86
2023/06/25 04:17:46;;;;;;;9.25;4.97;;;16.00;95.10;;;;;;4822669;29;88716;-86
2023/06/25 04:20:12;;;;;;;10.10;4.82;;;16.00;95.00;;;;;;4822144;29;88978;-86
2023/06/25 04:22:37;;;;;;;7.43;4.63;;;16.00;95.00;;;;;;4822842;29;91816;-86
2023/06/25 04:25:03;;;;;;;8.43;4.47;;;16.00;95.00;;;;;;4822847;29;91247;-87
2023/06/25 04:27:29;;;;;;;8.60;4.43;;;16.10;95.00;;;;;;4808348;29;87147;-87
2023/06/25 04:29:55;;;;;;;8.18;4.25;;;16.10;95.00;;;;;;4824196;29;89372;-87
2023/06/25 04:32:20;;;;;;;8.63;4.47;;;16.10;94.80;;;;;;4807244;29;90207;-88
2023/06/25 04:34:46;;;;;;;8.10;4.38;;;16.20;94.90;;;;;;4823395;29;91311;-87
2023/06/25 04:37:11;;;;;;;7.72;3.83;;;16.20;95.00;;;;;;4822803;29;87375;-87
2023/06/25 04:39:39;;;;;;;9.35;3.95;;;16.30;94.90;;;;;;4822618;29;88786;-87
2023/06/25 04:42:05;;;;;;;6.28;3.78;;;16.30;94.90;;;;;;4823351;29;92074;-86
2023/06/25 04:44:31;;;;;;;7.40;4.07;;;16.40;95.00;;;;;;4821871;29;90856;-86
2023/06/25 04:46:56;;;;;;;6.40;3.65;;;16.40;94.90;;;;;;4822641;29;87635;-85
2023/06/25 04:49:22;;;;;;;8.63;4.13;;;16.50;94.30;;;;;;4822547;29;90776;-86
2023/06/25 04:51:48;;;;;;;7.15;4.00;;;16.60;94.70;;;;;;4823471;29;91001;-85
2023/06/25 04:54:13;;;;;;;6.05;4.00;;;16.60;94.30;;;;;;4822881;29;91454;-85
2023/06/25 04:56:39;;;;;;;7.63;4.72;;;16.70;94.50;;;;;;4824852;29;87464;-85
2023/06/25 04:59:05;;;;;;;8.50;5.07;;;16.80;94.60;;;;;;4827298;29;90770;-85
2023/06/25 05:01:30;;;;;;;13.30;5.13;;;16.80;94.50;;;;;;4825250;29;91147;-85
2023/06/25 05:03:56;;;;;;;8.25;5.13;;;16.90;94.40;;;;;;4825484;29;90629;-84
2023/06/25 05:06:22;;;;;;;9.55;5.50;;;17.00;94.40;;;;;;4824315;29;88118;-85
2023/06/25 05:08:47;;;;;;;7.32;4.85;;;17.00;94.60;;;;;;4810821;29;90441;-84
2023/06/25 05:11:13;;;;;;;8.18;5.20;;;17.10;94.90;;;;;;4826327;29;91080;-84
2023/06/25 05:13:38;;;;;;;9.55;5.90;;;17.20;94.60;;;;;;4827036;29;91064;-84
2023/06/25 05:16:04;;;;;;;10.38;6.10;;;17.30;94.90;;;;;;4826411;29;87602;-84
2023/06/25 05:18:30;;;;;;;10.00;5.07;;;17.40;94.90;;;;;;4811235;29;89968;-85
2023/06/25 05:20:55;;;;;;;9.73;5.03;;;17.40;94.50;;;;;;4827100;29;91571;-84
2023/06/25 05:23:21;;;;;;;9.88;5.05;;;17.50;94.60;;;;;;4825420;29;90140;-83
2023/06/25 05:25:47;;;;;;;9.18;4.70;;;17.60;94.40;;;;;;4826726;29;87630;-85
2023/06/25 05:28:13;;;;;;;11.60;5.13;;;17.70;94.40;;;;;;4825432;29;90320;-88
2023/06/25 05:30:38;;;;;;;9.55;5.15;;;17.80;94.10;;;;;;4825394;29;92222;-89
2023/06/25 05:33:04;;;;;;;12.55;5.97;;;17.90;93.40;;;;;;4826593;29;90979;-90
2023/06/25 05:35:30;;;;;;;10.95;5.30;;;18.00;92.70;;;;;;4826073;29;87542;-87
2023/06/25 05:37:58;;;;;;;11.00;4.78;;;18.10;92.10;;;;;;4825847;29;89184;-88
2023/06/25 05:40:28;;;;;;;12.10;4.82;;;18.20;91.90;;;;;;4825588;29;90453;-86
2023/06/25 05:42:54;;;;;;;7.85;4.80;;;18.30;91.90;;;;;;4825411;29;90787;-87
2023/06/25 05:45:21;;;;;;;10.57;4.78;;;18.40;91.80;;;;;;4826233;29;87395;-86
2023/06/25 05:47:47;;;;;;;10.10;4.93;;;18.50;91.20;;;;;;4811968;29;90886;-87
2023/06/25 05:50:12;;;;;;;7.13;4.57;;;18.70;91.40;;;;;;4825563;29;91151;-86
2023/06/25 05:52:41;;;;;;;5.65;4.13;;;18.90;91.40;;;;;;4826531;29;91060;-87
2023/06/25 05:55:07;;;;;;;10.32;4.60;;;19.00;91.10;;;;;;4809679;29;88675;-87
2023/06/25 05:57:32;;;;;;;9.27;4.60;;;19.10;91.00;;;;;;4826434;29;91759;-87
2023/06/25 05:59:58;;;;;;;9.50;4.97;;;19.20;90.70;;;;;;4825780;29;91574;-88
2023/06/25 06:02:23;;;;;;;9.20;5.00;;;19.40;89.40;;;;;;4825338;29;91023;-87
2023/06/25 06:04:49;;;;;;;9.60;4.43;;;19.50;87.80;;;;;;4824601;29;87480;-88
2023/06/25 06:07:15;;;;;;;9.60;4.47;;;19.60;86.10;;;;;;4823826;29;89356;-86
2023/06/25 06:09:40;;;;;;;5.43;3.88;;;19.80;86.30;;;;;;4824008;29;91308;-88
2023/06/25 06:12:06;;;;;;;8.98;4.07;;;19.90;83.10;;;;;;4825635;29;91907;-86
2023/06/25 06:14:34;;;;;;;9.07;4.35;;;20.10;84.40;;;;;;4825267;29;87492;-85
2023/06/25 06:17:00;;;;;;;6.50;4.45;;;20.20;86.20;;;;;;4825022;29;89123;-86
2023/06/25 06:19:25;;;;;;;7.60;4.80;;;20.40;86.90;;;;;;4808332;29;92117;-86
2023/06/25 06:21:51;;;;;;;9.88;4.85;;;20.60;85.60;;;;;;4808914;29;91132;-86
2023/06/25 06:24:17;;;;;;;6.32;4.45;;;20.70;85.90;;;;;;4824250;29;87134;-86
2023/06/25 06:26:42;;;;;;;6.28;3.78;;;20.90;86.30;;;;;;4824524;29;90346;-85
2023/06/25 06:29:08;;;;;;;9.52;4.47;;;21.00;84.50;;;;;;4823974;29;91289;-87
2023/06/25 06:31:34;;;;;;;6.57;4.40;;;21.20;82.10;;;;;;4824685;29;90872;-86
2023/06/25 06:33:59;;;;;;;4.57;3.72;;;21.40;81.30;;;;;;4824782;29;87617;-86
2023/06/25 06:36:25;;;;;;;8.88;4.70;;;21.50;82.30;;;;;;4809506;29;89481;-86
2023/06/25 06:38:50;;;;;;;9.77;4.47;;;21.70;82.80;;;;;;4825761;29;90136;-86
2023/06/25 06:41:16;;;;;;;7.82;4.85;;;21.90;79.80;;;;;;4810411;29;91205;-85
2023/06/25 06:43:42;;;;;;;8.85;5.10;;;22.00;80.10;;;;;;4824930;29;88656;-86
2023/06/25 06:46:07;;;;;;;9.40;5.10;;;22.20;76.10;;;;;;4825536;29;90504;-86
2023/06/25 06:48:33;;;;;;;6.93;4.55;;;22.30;76.90;;;;;;4824850;29;90000;-84
2023/06/25 06:50:59;;;;;;;9.07;5.43;;;22.40;76.40;;;;;;4826171;29;91247;-86
2023/06/25 06:53:28;;;;;;;6.95;4.45;;;22.60;76.90;;;;;;4825368;29;87327;-85
2023/06/25 06:55:54;;;;;;;7.93;5.13;;;22.70;75.80;;;;;;4824682;29;89274;-85
2023/06/25 06:58:19;;;;;;;9.10;5.45;;;22.90;74.00;;;;;;4824518;29;91647;-92
2023/06/25 07:00:45;;;;;;;8.65;4.72;;;23.00;74.30;;;;;;4824472;29;91142;-88
2023/06/25 07:03:11;;;;;;;9.23;6.18;;;23.20;75.50;;;;;;4825404;29;87888;-95
2023/06/25 07:05:36;;;;;;;8.52;5.18;;;23.40;73.50;;;;;;4824850;29;88885;-90
2023/06/25 07:08:02;;;;;;;9.15;5.43;;;23.50;72.70;;;;;;4824208;29;91032;-89
2023/06/25 07:10:28;;;;;;;11.02;5.70;;;23.70;72.90;;;;;;4824702;29;91538;-90
2023/06/25 07:12:54;;;;;;;8.38;5.32;;;23.80;72.60;;;;;;4823678;29;87654;-83
2023/06/25 07:15:19;;;;;;;6.07;5.00;;;24.00;74.00;;;;;;4823545;29;90750;-83
2023/06/25 07:17:45;;;;;;;10.07;5.30;;;24.10;73.50;;;;;;4824727;29;90375;-83
2023/06/25 07:20:11;;;;;;;6.80;5.22;;;24.30;72.30;;;;;;4822840;29;91603;-83
2023/06/25 07:22:39;;;;;;;9.57;5.50;;;24.40;70.50;;;;;;4823982;29;87432;-85
2023/06/25 07:25:07;;;;;;;7.53;5.25;;;24.50;71.50;;;;;;4822789;29;89398;-82
2023/06/25 07:27:32;;;;;;;7.82;5.28;;;24.70;71.10;;;;;;4807312;29;91842;-84
2023/06/25 07:29:58;;;;;;;9.15;4.72;;;24.80;69.10;;;;;;4824672;29;91220;-85
2023/06/25 07:32:23;;;;;;;6.50;5.25;;;24.90;70.80;;;;;;4824040;29;88862;-85
2023/06/25 07:34:49;;;;;;;7.80;5.32;;;25.10;69.00;;;;;;4824058;29;89945;-86
2023/06/25 07:37:15;;;;;;;8.02;4.80;;;25.30;69.40;;;;;;4823341;29;90378;-86
2023/06/25 07:39:40;;;;;;;5.93;4.45;;;25.40;68.90;;;;;;4823852;29;90682;-87
2023/06/25 07:42:06;;;;;;;8.77;4.40;;;25.50;69.30;;;;;;4824973;29;87809;-86
2023/06/25 07:44:32;;;;;;;4.95;4.30;;;25.80;67.90;;;;;;4824714;29;89432;-86
2023/06/25 07:46:57;;;;;;;7.28;4.28;;;26.00;68.80;;;;;;4823993;29;91974;-87
2023/06/25 07:49:23;;;;;;;6.70;4.45;;;26.20;67.40;;;;;;4824194;29;91175;-86
2023/06/25 07:51:50;;;;;;;4.97;4.20;;;26.40;66.30;;;;;;4823885;29;87941;-85
2023/06/25 07:54:17;;;;;;;8.82;4.15;;;26.50;64.00;;;;;;4808719;29;89526;-86
2023/06/25 07:56:44;;;;;;;7.18;4.22;;;26.60;64.70;;;;;;4809143;29;92581;-87
2023/06/25 07:59:12;;;;;;;9.18;4.65;;;26.80;64.70;;;;;;4808022;29;91187;-88
2023/06/25 08:01:38;;;;;;;6.05;4.20;;;27.00;63.60;;;;;;4808294;29;87558;-88
2023/06/25 08:04:04;;;;;;;8.65;3.70;;;27.10;62.50;;;;;;4823597;29;89074;-85
2023/06/25 08:06:29;;;;;;;6.32;4.28;;;27.20;63.50;;;;;;4824015;29;90252;-86
2023/06/25 08:08:55;;;;;;;8.75;4.60;;;27.40;60.50;;;;;;4824040;29;90829;-85
2023/06/25 08:11:21;;;;;;;5.75;4.50;;;27.50;60.70;;;;;;4824386;29;87361;-86
2023/06/25 08:13:46;;;;;;;5.57;4.03;;;27.70;60.60;;;;;;4823683;29;90400;-86
2023/06/25 08:16:12;;;;;;;5.47;4.10;;;27.80;59.50;;;;;;4823620;29;90377;-86
2023/06/25 08:18:38;;;;;;;9.73;4.88;;;27.80;60.20;;;;;;4824282;29;89953;-84
2023/06/25 08:21:03;;;;;;;6.78;4.25;;;27.90;59.40;;;;;;4824209;29;88908;-86
2023/06/25 08:23:29;;;;;;;5.88;4.20;;;28.10;60.20;;;;;;4823730;29;90071;-84
2023/06/25 08:25:55;;;;;;;5.20;4.40;;;28.20;59.60;;;;;;4825319;29;90299;-84
2023/06/25 08:28:21;;;;;;;6.40;4.25;;;28.30;57.60;;;;;;4824522;29;91451;-87
2023/06/25 08:30:46;;;;;;;7.90;4.60;;;28.30;58.40;;;;;;4824805;29;87624;-87
2023/06/25 08:33:12;;;;;;;4.95;4.15;;;28.50;57.00;;;;;;4828451;29;90565;-90
2023/06/25 08:35:38;;;;;;;7.57;4.45;;;28.60;56.40;;;;;;4828698;29;90849;-87
2023/06/25 08:38:03;;;;;;;6.25;4.22;;;28.80;57.00;;;;;;4827257;29;90091;-84
2023/06/25 08:40:30;;;;;;;7.25;4.30;;;28.90;56.90;;;;;;4825785;29;87767;-86
2023/06/25 08:42:56;;;;;;;6.97;4.50;;;29.00;57.00;;;;;;4827302;29;90396;-85
2023/06/25 08:45:22;;;;;;;6.45;4.38;;;29.20;56.40;;;;;;4812690;29;91103;-86
2023/06/25 08:47:54;;;;;;;4.72;4.32;;;29.30;55.30;;;;;;4810840;29;90883;-85
2023/06/25 08:50:20;;;;;;;5.47;4.30;;;29.40;57.50;;;;;;4825461;29;87611;-86
2023/06/25 08:52:46;;;;;;;5.50;4.22;;;29.50;54.90;;;;;;4823931;29;88914;-84
2023/06/25 08:55:13;;;;;;;5.18;3.80;;;29.70;56.30;;;;;;4825505;29;90079;-86
2023/06/25 08:57:39;;;;;;;7.30;4.50;;;29.90;54.70;;;;;;4824851;29;89350;-86
2023/06/25 09:00:07;;;;;;;5.32;4.35;;;30.00;54.50;;;;;;4826206;29;88229;-83
2023/06/25 09:02:36;;;;;;;5.60;4.10;;;30.10;52.60;;;;;;4810636;29;89357;-83
2023/06/25 09:05:13;;;;;;;5.00;4.50;;;30.20;52.90;;;;;;4824793;29;90783;-83
2023/06/25 09:07:44;;;;;;;6.10;4.22;;;30.20;53.00;;;;;;4825689;29;90295;-83
2023/06/25 09:10:10;;;;;;;5.75;3.28;;;30.30;53.10;;;;;;4824213;29;88888;-83
2023/06/25 09:12:35;;;;;;;6.63;4.45;;;30.40;51.20;;;;;;4824371;29;90169;-83
2023/06/25 09:15:01;;;;;;;5.63;3.95;;;30.50;49.10;;;;;;4825371;29;90778;-83
2023/06/25 09:17:27;;;;;;;5.15;4.10;;;30.40;50.30;;;;;;4824951;29;90183;-84
2023/06/25 09:19:53;;;;;;;6.40;3.90;;;30.50;49.20;;;;;;4825081;29;88899;-84
2023/06/25 09:22:18;;;;;;;4.60;3.72;;;30.50;49.20;;;;;;4824968;29;90723;-84
2023/06/25 09:24:47;;;;;;;4.65;3.72;;;30.70;49.60;;;;;;4823944;29;90334;-84
2023/06/25 09:27:13;;;;;;;7.28;4.03;;;30.70;49.00;;;;;;4810184;29;90796;-85
2023/06/25 09:29:39;;;;;;;4.85;3.97;;;30.80;47.90;;;;;;4827109;29;87558;-86
2023/06/25 09:32:09;;;;;;;6.78;3.83;;;30.80;49.10;;;;;;4826556;29;89199;-86
2023/06/25 09:34:35;;;;;;;6.72;3.67;;;30.80;47.00;;;;;;4809598;29;92076;-84
2023/06/25 09:37:03;;;;;;;7.15;4.07;;;30.80;48.90;;;;;;4825596;29;91907;-84
2023/06/25 09:39:29;;;;;;;4.03;3.60;;;30.90;49.50;;;;;;4826029;29;87717;-83
2023/06/25 09:41:56;;;;;;;5.13;3.88;;;30.90;47.70;;;;;;4825700;29;90049;-83
2023/06/25 09:44:21;;;;;;;5.25;3.78;;;30.90;48.80;;;;;;4826259;29;90380;-84
2023/06/25 09:46:49;;;;;;;4.53;3.33;;;31.10;48.60;;;;;;4809740;29;91053;-85
2023/06/25 09:49:18;;;;;;;3.58;3.28;;;31.20;47.80;;;;;;4810285;29;87757;-83
2023/06/25 09:51:59;;;;;;;4.22;3.40;;;31.40;49.70;;;;;;4825356;29;90781;-85
2023/06/25 09:54:25;;;;;;;5.80;3.50;;;31.60;50.30;;;;;;4809721;29;91778;-85
2023/06/25 09:56:53;;;;;;;3.78;3.28;;;31.80;49.30;;;;;;4825914;29;91032;-91
2023/06/25 09:59:19;;;;;;;4.88;3.67;;;32.10;48.00;;;;;;4824456;29;88914;-88
2023/06/25 10:01:44;;;;;;;5.20;3.67;;;32.20;47.10;;;;;;4824792;29;90053;-84
2023/06/25 10:04:10;;;;;;;4.78;3.55;;;32.20;44.80;;;;;;4824840;29;90299;-87
2023/06/25 10:06:36;;;;;;;5.93;3.17;;;32.20;46.10;;;;;;4810285;29;90145;-86
2023/06/25 10:09:03;;;;;;;7.13;3.33;;;32.10;46.10;;;;;;4810535;29;87767;-85
2023/06/25 10:11:29;;;;;;;10.00;4.95;;;32.10;45.90;;;;;;4809344;29;90319;-86
2023/06/25 10:13:57;;;;;;;5.07;3.67;;;32.10;44.20;;;;;;4824768;29;91750;-85
2023/06/25 10:16:22;;;;;;;9.75;4.03;;;32.20;47.30;;;;;;4809612;29;92577;-86
2023/06/25 10:18:53;;;;;;;3.60;3.30;;;32.40;46.40;;;;;;4810048;29;87624;-85
2023/06/25 10:21:21;;;;;;;7.55;3.35;;;32.50;48.10;;;;;;4809192;29;89545;-85
2023/06/25 10:23:57;;;;;;;3.95;3.20;;;32.70;45.20;;;;;;4809707;29;91358;-84
2023/06/25 10:26:31;;;;;;;4.60;3.42;;;32.70;44.80;;;;;;4824805;29;91862;-84
2023/06/25 10:29:00;;;;;;;4.03;3.10;;;32.70;44.80;;;;;;4824764;29;87595;-85
2023/06/25 10:31:26;;;;;;;4.60;3.00;;;32.70;44.90;;;;;;4808367;29;90797;-85
2023/06/25 10:34:03;;;;;;;6.63;3.85;;;32.80;46.50;;;;;;4809015;29;92211;-85
2023/06/25 10:36:29;;;;;;;4.93;3.63;;;32.90;45.40;;;;;;4824422;29;91217;-85
2023/06/25 10:38:56;;;;;;;3.65;3.20;;;33.10;44.10;;;;;;4810309;29;87204;-86
2023/06/25 10:41:32;;;;;;;3.72;3.10;;;33.20;45.50;;;;;;4824489;29;90227;-85
2023/06/25 10:44:00;;;;;;;4.13;3.30;;;33.20;45.40;;;;;;4809749;29;91352;-85
2023/06/25 10:46:32;;;;;;;4.40;3.55;;;33.40;45.30;;;;;;4824767;29;90370;-86
2023/06/25 10:48:59;;;;;;;4.10;3.50;;;33.60;44.70;;;;;;4809661;29;88400;-85
2023/06/25 10:51:25;;;;;;;3.92;3.50;;;33.70;44.10;;;;;;4822908;29;90405;-85
2023/06/25 10:53:53;;;;;;;6.95;3.95;;;33.90;46.00;;;;;;4822649;29;90592;-83
2023/06/25 10:56:19;;;;;;;13.57;3.80;;;34.10;45.60;;;;;;4809054;29;91562;-85
2023/06/25 10:58:46;;;;;;;6.80;3.17;;;34.20;44.90;;;;;;4825553;29;87995;-85
2023/06/25 11:01:13;;;;;;;7.15;3.25;;;34.40;44.70;;;;;;4825820;29;87528;-86
2023/06/25 11:03:39;;;;;;;3.58;3.28;;;34.50;41.90;;;;;;4823603;29;90545;-85
2023/06/25 11:06:05;;;;;;;3.53;3.03;;;34.40;42.50;;;;;;4823810;29;91035;-85
2023/06/25 11:08:30;;;;;;;23.73;4.57;;;34.40;40.70;;;;;;4823018;29;87748;-84
2023/06/25 11:10:56;;;;;;;7.30;3.20;;;34.30;44.40;;;;;;4823711;29;88896;-85
2023/06/25 11:13:21;;;;;;;5.47;3.70;;;34.30;41.90;;;;;;4823355;29;92711;-85
2023/06/25 11:15:47;;;;;;;4.20;3.20;;;34.20;40.90;;;;;;4824115;29;91941;-87
2023/06/25 11:18:13;;;;;;;6.75;2.83;;;34.10;40.80;;;;;;4823800;29;87661;-88
2023/06/25 11:20:40;;;;;;;5.45;3.22;;;34.10;41.80;;;;;;4824202;29;89193;-85
2023/06/25 11:23:05;;;;;;;5.18;3.58;;;34.20;41.60;;;;;;4807258;29;90252;-84
2023/06/25 11:25:31;;;;;;;5.05;2.95;;;34.30;41.00;;;;;;4824081;29;90067;-82
2023/06/25 11:28:15;;;;;;;3.72;2.85;;;34.50;41.50;;;;;;4822943;29;88858;-84
2023/06/25 11:30:45;;;;;;;5.93;2.92;;;34.70;39.40;;;;;;4823293;29;90895;-81
2023/06/25 11:33:13;;;;;;;3.22;2.88;;;34.80;39.80;;;;;;4823649;29;90412;-83
2023/06/25 11:38:05;;;;;;;3.58;3.28;;;34.80;39.50;;;;;;4792917;29;88905;-84
2023/06/25 11:40:34;;;;;;;5.00;3.30;;;34.80;39.20;;;;;;4823107;29;89281;-83
2023/06/25 11:42:59;;;;;;;3.10;2.83;;;34.80;38.60;;;;;;4824957;29;90237;-84
2023/06/25 11:45:25;;;;;;;3.33;2.80;;;34.80;41.90;;;;;;4824362;29;90289;-85
2023/06/25 11:47:56;;;;;;;7.82;3.47;;;35.20;40.20;;;;;;4824005;29;87492;-83
2023/06/25 11:50:25;;;;;;;3.58;2.78;;;35.50;40.40;;;;;;4822920;29;89579;-84
2023/06/25 11:52:53;;;;;;;2.90;2.70;;;35.70;41.90;;;;;;4807467;29;91819;-84
2023/06/25 11:55:21;;;;;;;3.17;2.80;;;36.00;41.80;;;;;;4808072;29;91174;-84
2023/06/25 11:57:48;;;;;;;3.22;2.90;;;36.30;39.60;;;;;;4823144;29;95474;-84
2023/06/25 12:00:14;;;;;;;3.85;3.13;;;36.30;38.00;;;;;;4807426;29;89703;-83
2023/06/25 12:02:40;;;;;;;4.38;2.67;;;36.30;40.20;;;;;;4822875;29;93743;-84
2023/06/25 12:05:06;;;;;;;3.03;2.83;;;36.50;43.00;;;;;;4822380;29;91141;-84
2023/06/25 12:07:31;;;;;;;4.63;3.30;;;36.90;42.50;;;;;;4806771;29;87581;-85
2023/06/25 12:09:57;;;;;;;3.30;2.80;;;37.40;37.60;;;;;;4807760;29;90073;-84
2023/06/25 12:12:23;;;;;;;3.03;2.65;;;37.40;39.20;;;;;;4822638;29;92493;-84
2023/06/25 12:14:49;;;;;;;4.15;2.90;;;37.40;38.70;;;;;;4823237;29;90990;-84
2023/06/25 12:17:14;;;;;;;4.35;2.95;;;37.50;39.00;;;;;;4823626;29;87642;-84
2023/06/25 12:19:41;;;;;;;4.00;2.72;;;37.70;38.80;;;;;;4823772;29;90395;-85
2023/06/25 12:22:07;;;;;;;3.30;3.05;;;37.70;35.60;;;;;;4822922;29;91611;-84
2023/06/25 12:24:32;;;;;;;3.47;2.80;;;37.60;34.50;;;;;;4822314;29;90537;-83
2023/06/25 12:26:58;;;;;;;3.53;2.90;;;37.50;38.60;;;;;;4824280;29;88483;-82
2023/06/25 12:29:24;;;;;;;4.32;2.80;;;37.70;39.00;;;;;;4822898;29;89395;-84
2023/06/25 12:31:49;;;;;;;4.93;2.80;;;37.90;34.30;;;;;;4823087;29;91803;-82
2023/06/25 12:34:15;;;;;;;3.50;2.85;;;37.70;34.80;;;;;;4823225;29;91314;-84
2023/06/25 12:36:40;;;;;;;3.67;3.30;;;37.40;36.30;;;;;;4823561;29;87578;-85
2023/06/25 12:39:06;;;;;;;3.97;2.72;;;37.10;36.40;;;;;;4823796;29;90323;-84
2023/06/25 12:41:32;;;;;;;5.20;3.05;;;37.00;36.20;;;;;;4821287;29;91140;-84
2023/06/25 12:43:57;;;;;;;4.32;2.97;;;37.10;35.20;;;;;;4823376;29;91207;-83